createdAt,value
2018-09-26T00:04:31.774Z,5.90
2018-09-26T00:09:35.774Z,6.00
2018-09-26T00:14:40.633Z,6.00
2018-09-26T00:19:48.958Z,6.00
2018-09-26T00:24:54.298Z,5.80
2018-09-26T00:29:58.575Z,5.70
2018-09-26T00:35:02.448Z,5.70
2018-09-26T00:40:06.749Z,5.70
2018-09-26T00:45:11.296Z,5.70
2018-09-26T00:50:15.332Z,5.50
2018-09-26T00:55:21.165Z,5.40
2018-09-26T01:00:26.198Z,5.30
2018-09-26T01:05:29.931Z,5.20
2018-09-26T01:10:34.157Z,5.10
2018-09-26T01:15:38.797Z,5.10
2018-09-26T01:20:44.169Z,5.00
2018-09-26T01:25:48.108Z,5.10
2018-09-26T01:30:53.267Z,4.90
2018-09-26T01:35:57.020Z,5.00
2018-09-26T01:41:00.690Z,5.10
2018-09-26T01:46:04.418Z,4.90
2018-09-26T01:51:08.000Z,4.80
2018-09-26T01:56:11.621Z,4.80
2018-09-26T02:01:16.261Z,4.70
2018-09-26T02:06:20.640Z,4.60
2018-09-26T02:11:24.377Z,4.60
2018-09-26T02:16:28.059Z,4.70
2018-09-26T02:21:32.637Z,4.70
2018-09-26T02:26:36.241Z,4.80
2018-09-26T02:31:41.168Z,4.60
2018-09-26T02:36:45.778Z,4.60
2018-09-26T02:41:49.746Z,4.50
2018-09-26T02:46:54.535Z,4.60
2018-09-26T02:51:59.517Z,4.60
2018-09-26T02:57:05.100Z,4.60
2018-09-26T03:02:08.783Z,4.60
2018-09-26T03:07:12.443Z,4.70
2018-09-26T03:12:16.268Z,4.50
2018-09-26T03:17:19.931Z,4.50
2018-09-26T03:22:23.864Z,4.50
2018-09-26T03:27:27.636Z,4.60
2018-09-26T03:32:31.166Z,4.40
2018-09-26T03:37:36.632Z,4.30
2018-09-26T03:42:40.315Z,4.30
2018-09-26T03:47:44.582Z,4.30
2018-09-26T03:52:48.222Z,4.30
2018-09-26T03:57:51.921Z,4.30
2018-09-26T04:02:55.577Z,4.40
2018-09-26T04:07:59.389Z,4.30
2018-09-26T04:13:03.067Z,4.40
2018-09-26T04:18:07.467Z,4.40
2018-09-26T04:23:11.349Z,4.40
2018-09-26T04:28:15.010Z,4.30
2018-09-26T04:33:19.826Z,4.40
2018-09-26T04:38:25.104Z,4.40
2018-09-26T04:43:28.589Z,4.30
2018-09-26T04:48:31.992Z,4.30
2018-09-26T04:53:35.352Z,4.40
2018-09-26T04:58:38.831Z,4.30
2018-09-26T05:03:42.311Z,4.30
2018-09-26T05:08:45.754Z,4.30
2018-09-26T05:13:49.129Z,4.30
2018-09-26T05:18:52.434Z,4.50
2018-09-26T05:23:55.750Z,4.50
2018-09-26T05:28:59.055Z,4.60
2018-09-26T05:34:02.301Z,4.60
2018-09-26T05:39:08.542Z,4.60
2018-09-26T05:44:14.004Z,4.70
2018-09-26T05:49:17.299Z,4.80
2018-09-26T05:54:20.931Z,4.90
2018-09-26T05:59:26.134Z,4.80
2018-09-26T06:04:29.416Z,5.00
2018-09-26T06:09:32.641Z,5.10
2018-09-26T06:14:35.966Z,5.20
2018-09-26T06:19:39.304Z,5.20
2018-09-26T06:24:42.675Z,5.30
2018-09-26T06:29:45.955Z,5.60
2018-09-26T06:34:49.933Z,5.90
2018-09-26T06:39:53.195Z,6.30
2018-09-26T06:44:56.576Z,6.70
2018-09-26T06:49:59.902Z,7.00
2018-09-26T06:55:03.331Z,7.20
2018-09-26T07:00:07.114Z,7.60
2018-09-26T07:05:10.407Z,7.60
2018-09-26T07:10:13.730Z,7.50
2018-09-26T07:15:17.089Z,7.70
2018-09-26T07:20:20.894Z,8.30
2018-09-26T07:25:24.225Z,8.60
2018-09-26T07:30:27.685Z,8.90
2018-09-26T07:35:30.968Z,9.40
2018-09-26T07:40:36.375Z,10.00
2018-09-26T07:45:39.692Z,10.50
2018-09-26T07:50:43.608Z,11.10
2018-09-26T07:55:46.965Z,11.50
2018-09-26T08:00:50.591Z,11.90
2018-09-26T08:05:54.846Z,12.20
2018-09-26T08:10:59.744Z,12.80
2018-09-26T08:16:03.002Z,13.00
2018-09-26T08:21:06.655Z,13.30
2018-09-26T08:26:09.956Z,13.70
2018-09-26T08:31:13.337Z,14.50
2018-09-26T08:36:16.635Z,15.20
2018-09-26T08:41:19.960Z,15.70
2018-09-26T08:46:23.292Z,15.90
2018-09-26T08:51:26.596Z,15.80
2018-09-26T08:56:30.005Z,15.60
2018-09-26T09:01:38.756Z,16.10
2018-09-26T09:06:42.096Z,16.20
2018-09-26T09:11:45.465Z,16.50
2018-09-26T09:16:48.728Z,16.70
2018-09-26T09:21:52.007Z,16.80
2018-09-26T09:26:55.312Z,16.90
2018-09-26T09:31:58.667Z,17.30
2018-09-26T09:37:02.100Z,17.60
2018-09-26T09:42:05.416Z,17.80
2018-09-26T09:47:08.679Z,18.00
2018-09-26T09:57:21.927Z,18.70
2018-09-26T10:02:25.339Z,19.10
2018-09-26T10:07:28.672Z,19.50
2018-09-26T10:12:31.983Z,19.30
2018-09-26T10:17:35.324Z,19.20
2018-09-26T10:22:38.608Z,19.60
2018-09-26T10:27:41.939Z,20.00
2018-09-26T10:32:45.304Z,20.00
2018-09-26T10:37:49.306Z,20.50
2018-09-26T10:42:52.731Z,21.10
2018-09-26T10:47:56.073Z,21.40
2018-09-26T10:52:59.327Z,21.70
2018-09-26T10:58:02.694Z,21.70
2018-09-26T11:03:06.189Z,21.60
2018-09-26T11:08:10.288Z,22.10
2018-09-26T11:13:13.820Z,22.40
2018-09-26T11:18:17.111Z,21.50
2018-09-26T11:23:21.112Z,21.70
2018-09-26T11:28:24.536Z,21.90
2018-09-26T11:33:27.938Z,21.80
2018-09-26T11:38:31.230Z,21.80
2018-09-26T11:43:41.542Z,21.30
2018-09-26T11:48:45.577Z,21.90
2018-09-26T11:53:48.996Z,22.10
2018-09-26T11:58:52.428Z,22.50
2018-09-26T12:03:55.784Z,22.60
2018-09-26T12:08:59.584Z,23.10
2018-09-26T12:14:02.905Z,23.20
2018-09-26T12:24:26.384Z,22.90
2018-09-26T12:29:29.966Z,23.40
2018-09-26T12:34:33.385Z,23.40
2018-09-26T12:39:37.002Z,23.40
2018-09-26T12:44:40.333Z,23.30
2018-09-26T12:49:43.738Z,23.10
2018-09-26T12:54:47.544Z,23.00
2018-09-26T12:59:51.012Z,23.00
2018-09-26T13:04:55.045Z,23.00
2018-09-26T13:09:58.446Z,22.50
2018-09-26T13:15:01.777Z,22.30
2018-09-26T13:20:06.163Z,22.40
2018-09-26T13:25:09.578Z,22.60
2018-09-26T13:30:12.915Z,22.90
2018-09-26T13:35:18.642Z,23.20
2018-09-26T13:40:21.946Z,23.90
2018-09-26T13:45:25.394Z,24.20
2018-09-26T13:50:28.756Z,23.90
2018-09-26T13:55:32.224Z,23.40
2018-09-26T14:00:35.556Z,22.90
2018-09-26T14:05:39.046Z,22.90
2018-09-26T14:10:42.417Z,22.50
2018-09-26T14:15:45.715Z,22.70
2018-09-26T14:20:49.109Z,21.90
2018-09-26T14:25:52.578Z,22.00
2018-09-26T14:36:05.494Z,22.10
2018-09-26T14:41:09.047Z,22.20
2018-09-26T14:46:12.406Z,22.10
2018-09-26T14:51:15.634Z,22.20
2018-09-26T14:56:19.037Z,21.90
2018-09-26T15:01:22.540Z,22.00
2018-09-26T15:06:26.102Z,22.20
2018-09-26T15:11:29.587Z,22.40
2018-09-26T15:16:33.112Z,22.60
2018-09-26T15:21:37.466Z,22.50
2018-09-26T15:26:40.750Z,22.20
2018-09-26T15:31:44.142Z,22.80
2018-09-26T15:36:48.104Z,23.20
2018-09-26T15:41:52.123Z,23.30
2018-09-26T15:46:55.822Z,23.40
2018-09-26T15:52:00.051Z,23.00
2018-09-26T15:57:03.904Z,22.40
2018-09-26T16:02:08.156Z,22.00
2018-09-26T16:07:11.475Z,21.50
2018-09-26T16:12:14.779Z,21.20
2018-09-26T16:17:19.310Z,20.90
2018-09-26T16:22:22.673Z,20.50
2018-09-26T16:27:26.098Z,20.20
2018-09-26T16:32:29.472Z,20.10
2018-09-26T16:37:32.844Z,19.70
2018-09-26T16:42:36.103Z,19.40
2018-09-26T16:47:39.517Z,19.10
2018-09-26T16:52:43.262Z,18.80
2018-09-26T16:57:46.620Z,18.50
2018-09-26T17:02:49.995Z,18.20
2018-09-26T17:07:53.500Z,17.80
2018-09-26T17:12:57.080Z,17.50
2018-09-26T17:18:00.961Z,17.30
2018-09-26T17:23:07.988Z,16.90
2018-09-26T17:28:17.860Z,16.60
2018-09-26T17:39:06.583Z,15.90
2018-09-26T17:44:10.524Z,15.60
2018-09-26T17:49:19.108Z,15.30
2018-09-26T17:54:22.940Z,15.20
2018-09-26T17:59:26.687Z,15.00
2018-09-26T18:04:30.945Z,14.50
2018-09-26T18:09:34.326Z,14.30
2018-09-26T18:14:37.982Z,14.00
2018-09-26T18:19:51.628Z,13.80
2018-09-26T18:24:55.641Z,13.60
2018-09-26T18:30:01.387Z,13.50
2018-09-26T18:35:06.116Z,13.20
2018-09-26T18:45:29.839Z,13.10
2018-09-26T18:50:33.710Z,12.90
2018-09-26T18:55:38.340Z,12.60
2018-09-26T19:00:41.924Z,12.50
2018-09-26T19:05:45.359Z,12.40
2018-09-26T19:10:48.753Z,12.20
2018-09-26T19:15:52.072Z,12.20
2018-09-26T19:20:55.576Z,12.10
2018-09-26T19:25:59.169Z,11.90
2018-09-26T19:31:02.724Z,11.90
2018-09-26T19:36:06.261Z,11.70
2018-09-26T19:41:09.982Z,11.80
2018-09-26T19:46:13.489Z,11.40
2018-09-26T19:51:16.903Z,11.40
2018-09-26T19:56:20.407Z,11.20
2018-09-26T20:01:23.805Z,11.30
2018-09-26T20:12:10.227Z,11.00
2018-09-26T20:17:20.697Z,11.10
2018-09-26T20:22:25.942Z,11.00
2018-09-26T21:05:52.227Z,10.30
2018-09-26T21:10:55.849Z,10.30
2018-09-26T21:16:00.419Z,10.20
2018-09-26T21:21:04.233Z,10.30
2018-09-26T21:26:08.083Z,10.10
2018-09-26T21:31:27.343Z,10.20
2018-09-26T21:36:31.205Z,10.30
2018-09-26T21:41:35.100Z,10.20
2018-09-26T21:46:39.432Z,10.30
2018-09-26T21:51:43.706Z,10.30
2018-09-26T21:56:49.715Z,10.30
2018-09-26T22:01:53.358Z,10.30
2018-09-26T22:06:57.113Z,10.30
2018-09-26T22:12:06.002Z,10.20
2018-09-26T22:17:10.117Z,10.30
2018-09-26T22:22:20.602Z,10.30
2018-09-26T22:27:24.419Z,10.20
2018-09-26T22:32:27.943Z,10.10
2018-09-26T22:37:31.591Z,10.00
2018-09-26T22:42:35.084Z,9.90
2018-09-26T22:47:38.706Z,9.80
2018-09-26T22:52:42.422Z,9.70
2018-09-26T22:57:46.925Z,9.50
2018-09-26T23:02:50.512Z,9.50
2018-09-26T23:07:54.169Z,9.40
2018-09-26T23:12:57.812Z,9.40
2018-09-26T23:18:01.544Z,9.50
2018-09-26T23:23:05.476Z,9.50
2018-09-26T23:28:09.840Z,9.50
2018-09-26T23:33:13.520Z,9.50
2018-09-26T23:38:17.448Z,9.60
2018-09-26T23:43:21.356Z,9.50
2018-09-26T23:48:24.985Z,9.40
2018-09-26T23:54:14.635Z,9.50
2018-09-26T23:59:17.950Z,9.50
